Time;durP1;ratioP1;P1;durP2;ratioP2;P2;SDS_P1;SDS_P2;PMS_P1;PMS_P2;Temp;Humidity;BMP_temperature;BMP_pressure;BME280_temperature;BME280_humidity;BME280_pressure;Samples;Min_cycle;Max_cycle;Signal;HPM_P1;HPM_P2
2023/04/19 00:00:51;;;;;;;19.85;12.80;;;9.70;1.00;;;;;;7364631;19;20026;-69
2023/04/19 00:03:23;;;;;;;17.77;12.93;;;9.80;1.90;;;;;;7365807;19;20011;-68
2023/04/19 00:05:57;;;;;;;20.65;13.65;;;9.70;1.80;;;;;;7365461;19;20036;-70
2023/04/19 00:08:28;;;;;;;19.33;12.50;;;9.70;1.70;;;;;;7370991;19;20459;-68
2023/04/19 00:11:00;;;;;;;18.38;13.15;;;9.70;2.10;;;;;;7370633;19;20022;-68
2023/04/19 00:13:30;;;;;;;18.83;13.43;;;9.70;2.40;;;;;;7391315;19;20003;-67
2023/04/19 00:16:00;;;;;;;21.00;13.10;;;9.70;2.30;;;;;;7367220;19;20010;-69
2023/04/19 00:18:30;;;;;;;19.15;12.18;;;9.60;2.50;;;;;;7365102;19;20035;-69
2023/04/19 00:21:01;;;;;;;19.13;12.60;;;9.60;2.80;;;;;;7365570;19;20013;-68
2023/04/19 00:23:31;;;;;;;21.25;13.63;;;9.60;3.50;;;;;;7365433;19;20074;-69
2023/04/19 00:26:04;;;;;;;20.70;13.20;;;9.60;3.50;;;;;;7365964;19;20019;-69
2023/04/19 00:28:35;;;;;;;21.77;14.00;;;9.60;3.80;;;;;;7386271;19;20070;-69
2023/04/19 00:31:05;;;;;;;20.23;12.82;;;9.60;4.20;;;;;;7364082;19;20014;-69
2023/04/19 00:33:35;;;;;;;21.15;13.27;;;9.50;4.20;;;;;;7364690;19;20098;-69
2023/04/19 00:36:05;;;;;;;23.95;13.63;;;9.60;4.20;;;;;;7372121;19;20017;-69
2023/04/19 00:38:35;;;;;;;20.17;12.93;;;9.50;4.40;;;;;;7370531;19;20110;-68
2023/04/19 00:41:08;;;;;;;23.15;13.63;;;9.50;5.00;;;;;;7370836;19;20349;-68
2023/04/19 00:43:38;;;;;;;20.85;14.23;;;9.40;5.20;;;;;;7369848;19;20038;-70
2023/04/19 00:46:08;;;;;;;21.65;13.85;;;9.40;5.20;;;;;;7394639;19;20490;-69
2023/04/19 00:48:38;;;;;;;22.63;14.15;;;9.40;5.50;;;;;;7369712;19;20003;-69
2023/04/19 00:51:09;;;;;;;21.33;13.77;;;9.40;5.80;;;;;;7370812;19;20116;-69
2023/04/19 00:53:40;;;;;;;21.75;13.88;;;9.40;5.30;;;;;;7371496;19;20010;-68
2023/04/19 00:56:13;;;;;;;23.45;13.27;;;9.40;5.40;;;;;;7372714;19;20006;-68
2023/04/19 00:58:43;;;;;;;25.27;13.90;;;9.40;5.60;;;;;;7370101;19;20007;-69
2023/04/19 01:01:13;;;;;;;21.80;14.85;;;9.40;5.90;;;;;;7393802;19;20010;-69
2023/04/19 01:03:43;;;;;;;23.45;13.75;;;9.40;6.20;;;;;;7369649;19;20003;-68
2023/04/19 01:06:13;;;;;;;22.17;13.48;;;9.40;6.10;;;;;;7372546;19;20002;-68
2023/04/19 01:08:43;;;;;;;22.95;13.52;;;9.30;6.20;;;;;;7370037;19;20478;-69
2023/04/19 01:11:16;;;;;;;19.25;14.02;;;9.30;6.50;;;;;;7372428;19;20019;-69
2023/04/19 01:13:46;;;;;;;25.90;15.13;;;9.30;6.60;;;;;;7369986;19;20040;-68
2023/04/19 01:16:15;;;;;;;20.15;13.35;;;9.30;6.30;;;;;;7394722;19;20015;-69
2023/04/19 01:18:46;;;;;;;24.42;13.93;;;9.30;7.30;;;;;;7369855;19;20018;-69
2023/04/19 01:21:16;;;;;;;22.25;13.55;;;9.30;6.90;;;;;;7371501;19;20006;-69
2023/04/19 01:23:48;;;;;;;24.42;14.40;;;9.30;7.30;;;;;;7371666;19;20507;-69
2023/04/19 01:26:18;;;;;;;23.25;15.55;;;9.30;7.60;;;;;;7372515;19;20002;-68
2023/04/19 01:28:48;;;;;;;20.90;14.10;;;9.20;7.50;;;;;;7369440;19;20638;-68
2023/04/19 01:31:18;;;;;;;20.23;13.50;;;9.20;8.00;;;;;;7393375;19;20006;-69
2023/04/19 01:33:48;;;;;;;21.77;13.88;;;9.20;8.00;;;;;;7371061;19;20530;-69
2023/04/19 01:36:18;;;;;;;20.60;14.55;;;9.20;8.00;;;;;;7371288;19;20471;-69
2023/04/19 01:38:51;;;;;;;24.13;15.15;;;9.20;8.00;;;;;;7368877;19;20458;-69
2023/04/19 01:41:25;;;;;;;23.38;14.75;;;9.20;8.00;;;;;;7370130;19;20010;-68
2023/04/19 01:43:55;;;;;;;;;;;9.30;8.00;;;;;;7368814;19;20051;-69
2023/04/19 01:46:25;;;;;;;24.02;14.63;;;9.20;8.00;;;;;;7389741;19;19919;-69
2023/04/19 01:48:55;;;;;;;21.95;14.48;;;9.20;8.00;;;;;;7368796;19;20522;-68
2023/04/19 01:51:25;;;;;;;18.77;13.27;;;9.20;7.90;;;;;;7369280;19;20102;-68
2023/04/19 01:53:58;;;;;;;21.25;14.18;;;9.20;7.90;;;;;;7369454;19;20011;-69
2023/04/19 01:56:27;;;;;;;20.15;13.52;;;9.20;7.50;;;;;;7370984;19;20023;-69
2023/04/19 01:58:57;;;;;;;22.27;14.43;;;9.20;7.50;;;;;;7367527;19;20360;-69
2023/04/19 02:01:27;;;;;;;19.98;13.50;;;9.20;7.10;;;;;;7392675;19;20358;-69
2023/04/19 02:03:57;;;;;;;21.52;14.25;;;9.20;7.40;;;;;;7367691;19;20336;-68
2023/04/19 02:06:28;;;;;;;20.80;14.38;;;9.20;7.80;;;;;;7370895;19;20079;-69
2023/04/19 02:09:00;;;;;;;23.10;14.43;;;9.20;8.00;;;;;;7367951;19;20100;-68
2023/04/19 02:11:30;;;;;;;22.08;14.45;;;9.20;7.30;;;;;;7369671;19;20011;-69
2023/04/19 02:14:00;;;;;;;23.00;13.95;;;9.20;7.40;;;;;;7369655;19;20042;-69
2023/04/19 02:16:30;;;;;;;24.08;15.35;;;9.20;7.50;;;;;;7392140;19;20014;-70
2023/04/19 02:19:04;;;;;;;22.40;14.40;;;9.20;7.40;;;;;;7368257;19;20026;-68
2023/04/19 02:21:34;;;;;;;21.65;13.48;;;9.10;7.40;;;;;;7367997;19;20958;-69
2023/04/19 02:24:07;;;;;;;23.63;13.95;;;9.10;7.60;;;;;;7368829;19;20014;-69
2023/04/19 02:26:37;;;;;;;20.75;14.20;;;9.10;8.40;;;;;;7367641;19;20013;-68
2023/04/19 02:29:07;;;;;;;22.75;14.88;;;9.20;8.00;;;;;;7368821;19;20034;-69
2023/04/19 02:31:38;;;;;;;21.17;13.73;;;9.10;8.00;;;;;;7379808;19;20081;-68
2023/04/19 02:34:08;;;;;;;20.17;12.88;;;9.10;8.00;;;;;;7389899;19;20209;-68
2023/04/19 02:36:37;;;;;;;19.77;13.63;;;9.10;7.90;;;;;;7368624;19;20011;-69
2023/04/19 02:39:11;;;;;;;23.05;14.75;;;9.00;7.90;;;;;;7368574;19;20057;-69
2023/04/19 02:41:41;;;;;;;20.77;14.13;;;9.10;8.20;;;;;;7366992;19;20002;-69
2023/04/19 02:44:11;;;;;;;21.55;14.55;;;9.10;8.30;;;;;;7368033;19;20010;-69
2023/04/19 02:46:41;;;;;;;21.90;14.75;;;9.00;8.30;;;;;;7368376;19;20494;-69
2023/04/19 02:49:11;;;;;;;19.80;13.82;;;9.00;8.00;;;;;;7389482;19;20462;-69
2023/04/19 02:51:40;;;;;;;23.92;14.98;;;9.00;8.80;;;;;;7367833;19;20375;-69
2023/04/19 02:54:14;;;;;;;21.33;15.00;;;9.00;9.00;;;;;;7368241;19;20014;-68
2023/04/19 02:56:44;;;;;;;19.60;14.50;;;9.00;8.80;;;;;;7366329;19;20021;-68
2023/04/19 02:59:14;;;;;;;23.77;15.95;;;9.00;8.80;;;;;;7368586;19;20009;-68
2023/04/19 03:01:44;;;;;;;22.60;15.38;;;9.00;8.40;;;;;;7367822;19;20510;-68
2023/04/19 03:04:14;;;;;;;23.27;14.85;;;9.00;8.90;;;;;;7388188;19;20010;-68
2023/04/19 03:06:44;;;;;;;23.48;15.43;;;9.00;9.40;;;;;;7368133;19;20017;-69
2023/04/19 03:09:16;;;;;;;26.00;14.73;;;9.00;9.20;;;;;;7366862;19;20018;-68
2023/04/19 03:11:46;;;;;;;23.30;15.48;;;9.00;8.90;;;;;;7367795;19;20348;-68
2023/04/19 03:14:16;;;;;;;19.42;13.68;;;9.00;8.70;;;;;;7366906;19;20468;-67
2023/04/19 03:16:46;;;;;;;23.55;14.95;;;8.90;8.70;;;;;;7367043;19;20092;-68
2023/04/19 03:19:16;;;;;;;22.75;15.07;;;8.90;8.80;;;;;;7389067;19;20010;-68
2023/04/19 03:21:47;;;;;;;21.35;14.40;;;8.90;8.80;;;;;;7367929;19;20027;-69
2023/04/19 03:24:20;;;;;;;24.08;15.43;;;8.90;8.50;;;;;;7367209;19;20505;-69
2023/04/19 03:26:50;;;;;;;22.05;15.82;;;8.90;8.60;;;;;;7366853;19;20343;-68
2023/04/19 03:29:20;;;;;;;22.58;14.93;;;8.90;8.50;;;;;;7364919;19;20348;-68
2023/04/19 03:31:50;;;;;;;25.05;15.50;;;8.90;8.50;;;;;;7367481;19;20014;-68
2023/04/19 03:34:20;;;;;;;25.08;16.33;;;8.80;8.70;;;;;;7386473;19;20014;-68
2023/04/19 03:36:50;;;;;;;22.35;14.32;;;8.90;8.90;;;;;;7366708;19;20019;-69
2023/04/19 03:39:22;;;;;;;23.08;16.30;;;8.80;8.50;;;;;;7365247;19;20014;-69
2023/04/19 03:41:52;;;;;;;21.60;14.50;;;8.90;8.90;;;;;;7366532;19;20014;-68
2023/04/19 03:44:22;;;;;;;21.42;14.75;;;8.80;8.60;;;;;;7365475;19;20013;-68
2023/04/19 03:46:52;;;;;;;21.67;14.73;;;8.80;9.30;;;;;;7366318;19;20014;-68
2023/04/19 03:49:22;;;;;;;23.70;15.55;;;8.80;9.30;;;;;;7386429;19;20074;-68
2023/04/19 03:51:52;;;;;;;23.50;15.35;;;8.80;9.50;;;;;;7365968;19;20035;-69
2023/04/19 03:54:25;;;;;;;22.98;14.77;;;8.80;8.70;;;;;;7367627;19;20097;-68
2023/04/19 03:56:55;;;;;;;20.25;14.45;;;8.80;9.10;;;;;;7365812;19;20094;-69
2023/04/19 03:59:25;;;;;;;23.58;14.43;;;8.80;9.30;;;;;;7365580;19;20013;-68
2023/04/19 04:01:55;;;;;;;22.23;14.27;;;8.70;9.00;;;;;;7367666;19;20021;-68
2023/04/19 04:04:25;;;;;;;21.60;14.98;;;8.70;9.30;;;;;;7385405;19;20024;-69
2023/04/19 04:06:55;;;;;;;21.88;14.38;;;8.80;9.30;;;;;;7365832;19;20078;-69
2023/04/19 04:09:28;;;;;;;24.60;15.88;;;8.80;8.80;;;;;;7366287;19;20010;-68
2023/04/19 04:11:58;;;;;;;22.63;14.95;;;8.80;8.30;;;;;;7373817;19;20029;-68
2023/04/19 04:14:28;;;;;;;23.40;14.90;;;8.80;8.60;;;;;;7372714;19;20015;-68
2023/04/19 04:16:57;;;;;;;21.55;14.82;;;8.80;8.30;;;;;;7373596;19;20007;-68
2023/04/19 04:19:27;;;;;;;23.52;15.05;;;8.80;8.10;;;;;;7392916;19;20450;-69
2023/04/19 04:21:57;;;;;;;19.77;14.02;;;8.80;7.80;;;;;;7374817;19;20007;-68
2023/04/19 04:24:31;;;;;;;22.73;14.90;;;8.80;8.20;;;;;;7370864;19;20549;-69
2023/04/19 04:27:02;;;;;;;19.73;15.07;;;8.70;7.70;;;;;;7372658;19;19999;-69
2023/04/19 04:29:34;;;;;;;22.83;14.00;;;8.70;8.10;;;;;;7371513;19;20054;-68
2023/04/19 04:32:04;;;;;;;19.42;13.35;;;8.70;8.30;;;;;;7373555;19;20009;-69
2023/04/19 04:34:35;;;;;;;18.80;14.10;;;8.70;9.30;;;;;;7391069;19;20015;-68
2023/04/19 04:37:06;;;;;;;22.02;15.25;;;8.70;10.00;;;;;;7372285;19;20002;-68
2023/04/19 04:39:38;;;;;;;23.05;15.27;;;8.70;10.10;;;;;;7370099;19;20007;-69
2023/04/19 04:42:09;;;;;;;20.80;14.65;;;8.70;9.60;;;;;;7373969;19;20543;-69
2023/04/19 04:44:40;;;;;;;20.80;14.80;;;8.80;8.40;;;;;;7371315;19;20030;-69
2023/04/19 04:47:10;;;;;;;22.77;14.90;;;9.10;6.60;;;;;;7371349;19;20372;-68
2023/04/19 04:49:40;;;;;;;21.58;14.18;;;9.40;2.80;;;;;;7392554;19;20486;-68
2023/04/19 04:52:10;;;;;;;24.92;14.48;;;9.80;1.00;;;;;;7372898;19;20038;-69
2023/04/19 04:54:42;;;;;;;20.92;13.80;;;9.70;1.00;;;;;;7369324;19;20358;-69
2023/04/19 04:57:12;;;;;;;18.75;13.60;;;10.10;1.00;;;;;;7372761;19;20006;-69
2023/04/19 04:59:42;;;;;;;19.40;13.70;;;10.30;1.00;;;;;;7371755;19;20027;-69
2023/04/19 05:02:12;;;;;;;22.75;14.13;;;10.20;1.00;;;;;;7372638;19;20018;-69
2023/04/19 05:04:42;;;;;;;21.35;13.45;;;10.30;1.00;;;;;;7392664;19;21430;-69
2023/04/19 05:07:12;;;;;;;19.63;13.48;;;10.00;1.00;;;;;;7371399;19;20014;-69
2023/04/19 05:09:45;;;;;;;21.00;14.32;;;10.40;1.00;;;;;;7368893;19;20478;-68
2023/04/19 05:12:14;;;;;;;19.92;13.98;;;10.80;1.00;;;;;;7372043;19;20010;-69
2023/04/19 05:14:44;;;;;;;20.70;13.60;;;10.50;1.00;;;;;;7369959;19;20010;-68
2023/04/19 05:17:14;;;;;;;18.30;13.13;;;11.10;1.00;;;;;;7370755;19;20052;-68
2023/04/19 05:19:44;;;;;;;21.60;13.05;;;11.10;1.00;;;;;;7391921;19;20042;-68
2023/04/19 05:22:14;;;;;;;20.98;12.88;;;11.10;1.00;;;;;;7369519;19;20422;-69
2023/04/19 05:24:48;;;;;;;19.77;13.75;;;10.50;1.00;;;;;;7369322;19;20026;-67
2023/04/19 05:27:18;;;;;;;19.52;13.40;;;9.50;1.00;;;;;;7370147;19;20017;-67
2023/04/19 05:29:50;;;;;;;20.13;14.05;;;9.10;1.40;;;;;;7369267;19;20017;-68
2023/04/19 05:32:20;;;;;;;23.30;14.07;;;9.10;4.10;;;;;;7369011;19;20086;-69
2023/04/19 05:34:50;;;;;;;23.33;13.43;;;9.00;3.30;;;;;;7374155;19;20018;-68
2023/04/19 05:37:19;;;;;;;20.92;13.63;;;8.90;5.00;;;;;;7390911;19;20093;-67
2023/04/19 05:39:52;;;;;;;20.25;13.85;;;8.70;5.40;;;;;;7368216;19;20010;-69
2023/04/19 05:42:22;;;;;;;21.55;13.40;;;8.80;5.80;;;;;;7370591;19;20490;-68
2023/04/19 05:44:52;;;;;;;18.55;12.82;;;8.80;5.20;;;;;;7368761;19;20006;-68
2023/04/19 05:47:22;;;;;;;19.95;12.95;;;8.70;4.70;;;;;;7367007;19;20013;-67
2023/04/19 05:49:52;;;;;;;19.83;13.93;;;8.80;4.40;;;;;;7368296;19;20021;-69
2023/04/19 05:52:22;;;;;;;20.00;13.10;;;8.90;4.90;;;;;;7391902;19;20078;-69
2023/04/19 05:54:54;;;;;;;19.20;13.40;;;8.80;3.90;;;;;;7367740;19;20022;-68
2023/04/19 05:57:24;;;;;;;17.40;12.15;;;8.80;4.10;;;;;;7368004;19;20086;-68
2023/04/19 05:59:54;;;;;;;20.98;13.15;;;9.00;2.50;;;;;;7370209;19;20074;-69
2023/04/19 06:02:24;;;;;;;18.92;13.13;;;9.10;2.00;;;;;;7368501;19;20051;-69
2023/04/19 06:04:56;;;;;;;21.10;12.88;;;9.10;1.40;;;;;;7368581;19;20026;-68
2023/04/19 06:07:29;;;;;;;;;;;8.90;1.00;;;;;;7387373;19;20639;-69
2023/04/19 06:10:10;;;;;;;18.13;12.45;;;9.10;1.00;;;;;;7367218;19;19915;-69
2023/04/19 06:12:40;;;;;;;19.90;11.82;;;9.20;1.10;;;;;;7366267;19;20021;-68
2023/04/19 06:15:11;;;;;;;20.48;12.90;;;9.30;1.00;;;;;;7368315;19;20034;-68
2023/04/19 06:17:41;;;;;;;18.38;12.05;;;9.60;1.00;;;;;;7366262;19;20082;-68
2023/04/19 06:20:13;;;;;;;16.65;11.73;;;9.80;1.00;;;;;;7388637;19;20070;-68
2023/04/19 06:22:46;;;;;;;19.08;12.90;;;10.00;1.00;;;;;;7389553;19;20431;-68
2023/04/19 06:25:19;;;;;;;20.60;12.00;;;10.00;1.00;;;;;;7390964;19;20091;-68
2023/04/19 06:27:51;;;;;;;17.83;12.10;;;9.90;1.00;;;;;;7387177;19;20573;-68
2023/04/19 06:30:21;;;;;;;19.50;11.50;;;9.70;1.00;;;;;;7360341;19;20379;-67
2023/04/19 06:32:51;;;;;;;18.20;11.88;;;9.60;1.00;;;;;;7366916;19;20486;-67
2023/04/19 06:35:21;;;;;;;18.20;12.75;;;9.70;1.00;;;;;;7367208;19;20003;-68
2023/04/19 06:37:51;;;;;;;20.83;12.85;;;9.90;1.00;;;;;;7364257;19;20018;-68
2023/04/19 06:40:23;;;;;;;17.40;12.15;;;9.90;1.00;;;;;;7387526;19;20490;-68
2023/04/19 06:42:54;;;;;;;20.02;13.13;;;9.90;1.00;;;;;;7367479;19;20006;-69
2023/04/19 06:45:24;;;;;;;20.05;12.32;;;9.70;1.00;;;;;;7365684;19;20011;-68
2023/04/19 06:47:55;;;;;;;17.10;12.18;;;9.90;1.00;;;;;;7364457;19;20019;-69
2023/04/19 06:50:25;;;;;;;17.90;12.15;;;9.90;1.00;;;;;;7365398;19;20486;-67
2023/04/19 06:52:55;;;;;;;20.02;11.95;;;9.60;1.00;;;;;;7365955;19;20015;-69
2023/04/19 06:55:28;;;;;;;18.48;12.30;;;9.40;1.00;;;;;;7387007;19;20499;-68
2023/04/19 06:57:58;;;;;;;19.25;11.80;;;9.40;1.00;;;;;;7365833;19;20011;-68
2023/04/19 07:00:28;;;;;;;19.33;12.88;;;9.60;1.00;;;;;;7364098;19;20010;-67
2023/04/19 07:02:59;;;;;;;16.85;11.20;;;9.70;1.00;;;;;;7367370;19;20038;-68
2023/04/19 07:05:29;;;;;;;17.50;11.68;;;9.70;1.00;;;;;;7365685;19;20397;-68
2023/04/19 07:07:59;;;;;;;16.48;11.02;;;9.80;1.00;;;;;;7363927;19;20022;-68
2023/04/19 07:10:32;;;;;;;18.65;11.43;;;10.00;1.00;;;;;;7384794;19;20481;-68
2023/04/19 07:13:02;;;;;;;17.20;11.50;;;9.90;1.00;;;;;;7366864;19;20021;-68
2023/04/19 07:15:32;;;;;;;16.15;12.32;;;10.10;1.00;;;;;;7364538;19;20040;-67
2023/04/19 07:18:02;;;;;;;18.95;12.43;;;10.30;1.00;;;;;;7366118;19;20011;-68
2023/04/19 07:20:32;;;;;;;16.65;11.43;;;10.40;1.00;;;;;;7361837;19;20018;-69
2023/04/19 07:23:02;;;;;;;15.95;11.20;;;10.40;1.00;;;;;;7366909;19;20432;-69
2023/04/19 07:25:34;;;;;;;17.30;11.73;;;10.30;1.00;;;;;;7386133;19;20021;-69
2023/04/19 07:28:05;;;;;;;18.50;12.07;;;10.70;1.00;;;;;;7367153;19;20474;-69
2023/04/19 07:30:35;;;;;;;15.73;11.55;;;10.80;1.00;;;;;;7365179;19;20033;-68
2023/04/19 07:33:07;;;;;;;18.35;11.98;;;11.10;1.00;;;;;;7367756;19;20014;-68
2023/04/19 07:35:40;;;;;;;14.18;10.70;;;11.50;1.00;;;;;;7366248;19;20422;-68
2023/04/19 07:38:10;;;;;;;17.55;11.02;;;11.30;1.00;;;;;;7363042;19;20010;-69
2023/04/19 07:40:42;;;;;;;17.80;10.45;;;10.90;1.00;;;;;;7362208;19;20011;-67
2023/04/19 07:43:12;;;;;;;15.75;10.77;;;10.90;1.00;;;;;;7387614;19;20030;-68
2023/04/19 07:45:42;;;;;;;17.00;11.35;;;11.60;1.00;;;;;;7370316;19;20006;-69
2023/04/19 07:48:12;;;;;;;16.20;10.30;;;11.70;1.00;;;;;;7372351;19;20034;-68
2023/04/19 07:50:42;;;;;;;15.32;9.63;;;11.40;1.00;;;;;;7366581;19;20506;-68
2023/04/19 07:53:12;;;;;;;16.15;10.55;;;11.60;1.00;;;;;;7372687;19;20045;-68
2023/04/19 07:55:44;;;;;;;15.82;10.45;;;11.20;1.00;;;;;;7372019;19;20014;-69
2023/04/19 07:58:14;;;;;;;16.17;10.63;;;11.20;1.00;;;;;;7394570;19;20003;-69
2023/04/19 08:00:44;;;;;;;16.60;10.80;;;11.50;1.00;;;;;;7368689;19;20127;-68
2023/04/19 08:03:14;;;;;;;19.25;10.32;;;11.40;1.00;;;;;;7374286;19;20035;-69
2023/04/19 08:05:46;;;;;;;15.75;10.25;;;11.40;1.00;;;;;;7373586;19;20011;-68
2023/04/19 08:08:16;;;;;;;14.63;10.20;;;11.50;1.00;;;;;;7370300;19;20007;-69
2023/04/19 08:10:49;;;;;;;15.35;10.57;;;11.20;1.00;;;;;;7368976;19;20032;-69
2023/04/19 08:13:19;;;;;;;16.40;11.23;;;11.10;1.00;;;;;;7395004;19;20031;-68
2023/04/19 08:15:49;;;;;;;17.00;10.90;;;10.90;1.00;;;;;;7371657;19;20037;-69
2023/04/19 08:18:38;;;;;;;14.15;10.48;;;10.90;1.00;;;;;;7372512;19;20440;-68
2023/04/19 08:21:08;;;;;;;15.45;11.52;;;10.90;1.00;;;;;;7370749;19;20011;-67
2023/04/19 08:23:38;;;;;;;16.67;10.77;;;10.90;1.00;;;;;;7371869;19;20007;-68
2023/04/19 08:26:19;;;;;;;16.52;10.45;;;11.00;1.00;;;;;;7372225;19;20347;-66
2023/04/19 08:28:50;;;;;;;15.73;11.05;;;10.90;1.00;;;;;;7370055;19;20043;-68
2023/04/19 08:31:20;;;;;;;16.40;10.43;;;10.90;1.00;;;;;;7391901;19;20022;-67
2023/04/19 08:33:50;;;;;;;16.48;10.20;;;10.80;1.00;;;;;;7369636;19;20018;-68
2023/04/19 08:36:21;;;;;;;16.25;11.18;;;10.70;1.00;;;;;;7368937;19;20018;-68
2023/04/19 08:39:08;;;;;;;18.05;11.60;;;10.70;1.00;;;;;;7371118;19;20018;-67
2023/04/19 08:42:05;;;;;;;15.52;10.38;;;10.80;1.00;;;;;;7371299;19;20085;-67
2023/04/19 08:44:55;;;;;;;16.35;10.65;;;11.00;1.00;;;;;;7368091;19;20020;-68
2023/04/19 08:47:46;;;;;;;15.77;11.13;;;10.90;1.00;;;;;;7368948;19;20124;-69
2023/04/19 08:50:30;;;;;;;16.90;11.03;;;11.00;1.00;;;;;;7369899;19;20463;-68
2023/04/19 08:53:10;;;;;;;19.80;11.35;;;11.10;1.00;;;;;;7371135;19;20286;-68
2023/04/19 08:55:44;;;;;;;16.30;10.27;;;11.20;1.00;;;;;;7370032;19;20124;-67
2023/04/19 08:58:35;;;;;;;15.88;11.50;;;11.20;1.00;;;;;;7391370;19;20473;-68
2023/04/19 09:01:25;;;;;;;16.73;10.65;;;11.20;1.00;;;;;;7371293;19;20449;-68
2023/04/19 09:04:07;;;;;;;16.63;10.85;;;11.30;1.00;;;;;;7370436;19;20014;-70
2023/04/19 09:06:41;;;;;;;13.88;10.30;;;11.50;1.00;;;;;;7369668;19;20002;-69
2023/04/19 09:09:19;;;;;;;17.42;11.00;;;11.60;1.00;;;;;;7368986;19;20006;-68
2023/04/19 09:12:16;;;;;;;16.20;10.37;;;11.50;1.00;;;;;;7371093;19;20016;-69
2023/04/19 09:14:49;;;;;;;17.60;10.93;;;11.70;1.00;;;;;;7368873;19;20014;-68
2023/04/19 09:17:31;;;;;;;14.70;10.05;;;11.70;1.00;;;;;;7368220;19;20413;-69
2023/04/19 09:20:01;;;;;;;17.65;10.98;;;11.90;1.00;;;;;;7368903;19;20514;-68
2023/04/19 09:22:31;;;;;;;14.20;10.48;;;12.20;1.00;;;;;;7391877;19;20465;-68
2023/04/19 09:25:01;;;;;;;15.02;9.77;;;12.50;1.00;;;;;;7369454;19;20057;-68
2023/04/19 09:27:51;;;;;;;13.13;9.18;;;12.40;1.00;;;;;;7368429;19;20126;-68
2023/04/19 09:30:27;;;;;;;15.43;10.13;;;12.40;1.00;;;;;;7368253;19;20010;-68
2023/04/19 09:33:07;;;;;;;12.80;8.93;;;12.70;1.00;;;;;;7370354;19;20039;-68
2023/04/19 09:35:44;;;;;;;13.05;9.13;;;12.90;1.00;;;;;;7368366;19;20011;-69
2023/04/19 09:38:14;;;;;;;11.68;8.77;;;12.80;1.00;;;;;;7369074;19;20039;-69
2023/04/19 09:40:46;;;;;;;13.43;9.18;;;12.70;1.00;;;;;;7368668;19;20034;-68
2023/04/19 09:43:26;;;;;;;12.05;8.50;;;12.60;1.00;;;;;;7391572;19;20369;-68
2023/04/19 09:46:34;;;;;;;11.07;9.30;;;12.50;1.00;;;;;;7368483;19;20015;-67
2023/04/19 09:49:22;;;;;;;13.20;9.25;;;12.60;1.00;;;;;;7369191;19;20042;-67
2023/04/19 09:52:15;;;;;;;13.25;9.43;;;12.70;1.00;;;;;;7370457;19;20836;-68
2023/04/19 09:54:47;;;;;;;11.30;8.70;;;12.30;1.00;;;;;;7368173;19;20015;-68
2023/04/19 09:57:18;;;;;;;15.30;9.15;;;12.20;1.00;;;;;;7369253;19;20023;-69
2023/04/19 09:59:48;;;;;;;16.30;10.93;;;12.30;1.00;;;;;;7366870;19;20309;-68
2023/04/19 10:02:22;;;;;;;15.32;9.90;;;12.60;1.00;;;;;;7371357;19;20007;-68
2023/04/19 10:04:53;;;;;;;13.98;8.95;;;12.70;1.00;;;;;;7368812;19;20009;-69
2023/04/19 10:07:44;;;;;;;13.68;10.27;;;12.60;1.00;;;;;;7367503;19;20088;-68
2023/04/19 10:10:16;;;;;;;15.52;10.50;;;12.40;1.00;;;;;;7389413;19;20022;-68
2023/04/19 10:12:55;;;;;;;15.45;9.95;;;12.30;1.00;;;;;;7369396;19;20011;-69
2023/04/19 10:15:29;;;;;;;13.52;9.18;;;12.10;1.00;;;;;;7367886;19;20010;-68
2023/04/19 10:18:21;;;;;;;13.68;9.50;;;12.10;1.00;;;;;;7369111;19;20462;-69
2023/04/19 10:20:56;;;;;;;15.23;9.68;;;12.00;1.00;;;;;;7367925;19;20022;-68
2023/04/19 10:23:26;;;;;;;14.57;9.27;;;11.80;1.00;;;;;;7369106;19;20007;-70
2023/04/19 10:25:58;;;;;;;12.75;9.05;;;12.10;1.00;;;;;;7367369;19;20376;-69
2023/04/19 10:28:30;;;;;;;13.40;9.18;;;12.00;1.00;;;;;;7388402;19;20367;-68
2023/04/19 10:31:02;;;;;;;12.60;9.80;;;12.10;1.00;;;;;;7366713;19;20486;-69
2023/04/19 10:33:37;;;;;;;13.75;9.23;;;12.30;1.00;;;;;;7367579;19;20086;-70
2023/04/19 10:36:11;;;;;;;11.93;7.70;;;12.30;1.00;;;;;;7366050;19;20010;-69
2023/04/19 10:38:43;;;;;;;14.20;9.00;;;12.30;1.00;;;;;;7366598;19;20327;-69
2023/04/19 10:41:16;;;;;;;14.35;9.48;;;12.20;1.00;;;;;;7366242;19;20496;-71
2023/04/19 10:43:49;;;;;;;11.77;8.32;;;12.00;1.00;;;;;;7366846;19;20014;-69
2023/04/19 10:46:39;;;;;;;13.63;9.63;;;12.10;1.00;;;;;;7389105;19;20010;-69
2023/04/19 10:49:12;;;;;;;11.25;8.50;;;12.10;1.00;;;;;;7366708;19;20034;-69
2023/04/19 10:51:49;;;;;;;15.43;10.75;;;11.70;1.00;;;;;;7368412;19;20011;-70
2023/04/19 10:54:33;;;;;;;15.32;10.00;;;11.60;1.00;;;;;;7368684;19;20400;-69
2023/04/19 10:57:04;;;;;;;12.60;9.85;;;11.60;1.00;;;;;;7366441;19;20019;-68
2023/04/19 10:59:35;;;;;;;15.60;10.13;;;11.70;1.00;;;;;;7366213;19;20137;-68
2023/04/19 11:02:07;;;;;;;13.95;9.75;;;11.70;1.00;;;;;;7368194;19;20077;-68
2023/04/19 11:05:04;;;;;;;13.23;10.30;;;11.40;1.00;;;;;;7388257;19;20081;-69
2023/04/19 11:07:42;;;;;;;16.30;10.60;;;11.20;1.00;;;;;;7263062;19;2004546;-69
2023/04/19 11:10:12;;;;;;;14.10;10.45;;;11.20;1.00;;;;;;7389422;19;20007;-69
2023/04/19 11:12:46;;;;;;;15.10;10.73;;;11.30;1.00;;;;;;7366399;19;20010;-69
2023/04/19 11:15:16;;;;;;;17.70;11.57;;;11.30;1.00;;;;;;7367014;19;20018;-70
2023/04/19 11:17:46;;;;;;;17.38;11.73;;;11.10;1.00;;;;;;7364689;19;20089;-68
2023/04/19 11:20:25;;;;;;;17.05;11.77;;;10.90;1.00;;;;;;7364121;19;20014;-68
2023/04/19 11:22:59;;;;;;;17.08;12.05;;;11.00;1.00;;;;;;7365206;19;20035;-68
2023/04/19 11:25:32;;;;;;;18.55;14.00;;;10.90;1.00;;;;;;7386852;19;20039;-68
2023/04/19 11:28:02;;;;;;;19.48;12.75;;;10.70;1.00;;;;;;7364528;19;20017;-69
2023/04/19 11:30:32;;;;;;;20.48;13.90;;;10.60;1.00;;;;;;7364699;19;20033;-69
2023/04/19 11:33:02;;;;;;;21.92;13.80;;;10.50;4.40;;;;;;7367754;19;20056;-69
2023/04/19 11:35:36;;;;;;;25.02;14.15;;;10.40;4.50;;;;;;7365582;19;20312;-70
2023/04/19 11:38:06;;;;;;;23.08;14.63;;;10.40;6.60;;;;;;7365693;19;20015;-67
2023/04/19 11:40:36;;;;;;;21.17;13.75;;;10.40;7.50;;;;;;7386703;19;20362;-68
2023/04/19 11:43:06;;;;;;;20.55;14.55;;;10.40;5.60;;;;;;7366660;19;20048;-69
2023/04/19 11:45:38;;;;;;;23.30;15.73;;;10.40;6.00;;;;;;7365214;19;20450;-69
2023/04/19 11:48:15;;;;;;;23.25;15.63;;;10.40;7.10;;;;;;7365655;19;20011;-70
2023/04/19 11:50:48;;;;;;;23.75;15.82;;;10.30;8.00;;;;;;7364539;19;20329;-69
2023/04/19 11:53:20;;;;;;;25.53;16.27;;;10.20;8.50;;;;;;7367486;19;20017;-69
2023/04/19 11:55:52;;;;;;;23.45;15.50;;;10.20;11.90;;;;;;7365362;19;20283;-69
2023/04/19 11:58:35;;;;;;;24.65;16.58;;;10.30;13.20;;;;;;7386814;19;20018;-69
2023/04/19 12:01:07;;;;;;;24.38;15.45;;;10.20;13.60;;;;;;7364718;19;20078;-69
2023/04/19 12:03:42;;;;;;;23.50;15.02;;;10.10;11.30;;;;;;7364822;19;20011;-68
2023/04/19 12:06:18;;;;;;;26.73;15.43;;;9.90;11.00;;;;;;7365616;19;20011;-69
2023/04/19 12:08:50;;;;;;;25.08;16.10;;;10.10;9.50;;;;;;7362610;19;20479;-69
2023/04/19 12:11:21;;;;;;;24.70;15.98;;;10.10;7.80;;;;;;7364520;19;20010;-68
2023/04/19 12:14:10;;;;;;;24.77;15.13;;;10.00;8.60;;;;;;7365461;19;20470;-69
2023/04/19 12:16:40;;;;;;;22.30;14.93;;;10.00;8.10;;;;;;7367403;19;20052;-68
2023/04/19 12:19:14;;;;;;;22.80;15.38;;;10.00;7.80;;;;;;7384939;19;20014;-68
2023/04/19 12:21:48;;;;;;;25.25;15.70;;;10.20;8.00;;;;;;7365663;19;20019;-69
2023/04/19 12:24:19;;;;;;;22.00;15.60;;;10.20;8.10;;;;;;7363708;19;20010;-69
2023/04/19 12:26:56;;;;;;;23.48;15.13;;;10.30;8.00;;;;;;7363166;19;20010;-69
2023/04/19 12:29:29;;;;;;;22.50;14.45;;;10.20;6.10;;;;;;7361658;19;20014;-69
2023/04/19 12:31:58;;;;;;;21.40;14.73;;;10.10;5.30;;;;;;7372541;19;20038;-68
2023/04/19 12:34:29;;;;;;;20.02;13.75;;;9.90;3.50;;;;;;7392795;19;20018;-68
2023/04/19 12:37:03;;;;;;;19.20;12.98;;;9.90;3.20;;;;;;7370977;19;20027;-68
2023/04/19 12:39:32;;;;;;;21.75;13.52;;;10.10;3.10;;;;;;7369725;19;20017;-69
2023/04/19 12:42:02;;;;;;;19.10;13.65;;;10.00;3.00;;;;;;7371621;19;20352;-68
2023/04/19 12:44:32;;;;;;;21.20;13.82;;;10.10;4.90;;;;;;7370952;19;20018;-69
2023/04/19 12:47:02;;;;;;;22.35;14.55;;;9.90;3.70;;;;;;7371972;19;20006;-68
2023/04/19 12:49:32;;;;;;;21.80;15.07;;;10.10;3.80;;;;;;7391127;19;20074;-69
2023/04/19 12:52:07;;;;;;;22.08;13.75;;;10.10;3.90;;;;;;7371983;19;20015;-68
2023/04/19 12:54:36;;;;;;;20.05;14.15;;;10.20;3.80;;;;;;7366881;19;20462;-69
2023/04/19 12:57:06;;;;;;;22.60;13.93;;;10.30;4.70;;;;;;7369140;19;20478;-69
2023/04/19 12:59:36;;;;;;;22.25;14.13;;;10.20;2.60;;;;;;7368182;19;20018;-68
2023/04/19 13:02:07;;;;;;;19.48;13.55;;;10.30;3.20;;;;;;7369351;19;20014;-69
2023/04/19 13:04:37;;;;;;;18.20;12.48;;;10.50;4.30;;;;;;7390705;19;20014;-68
2023/04/19 13:07:10;;;;;;;20.88;14.05;;;10.40;1.00;;;;;;7367978;19;20003;-68
2023/04/19 13:09:40;;;;;;;18.95;13.13;;;10.40;1.80;;;;;;7366031;19;20014;-68